Time;durP1;ratioP1;P1;durP2;ratioP2;P2;SDS_P1;SDS_P2;PMS_P1;PMS_P2;Temp;Humidity;BMP_temperature;BMP_pressure;BME280_temperature;BME280_humidity;BME280_pressure;Samples;Min_cycle;Max_cycle;Signal;HPM_P1;HPM_P2
2022/06/01 00:00:41;;;;;;;;;1.25;1.25;;;;;;;;4990149;28;12043;-74
2022/06/01 00:03:09;;;;;;;;;1.00;1.00;;;;;;;;4980171;28;11200;-75
2022/06/01 00:05:36;;;;;;;;;2.00;2.00;;;;;;;;4993038;28;11488;-74
2022/06/01 00:08:04;;;;;;;;;0.00;0.00;;;;;;;;4977957;28;11486;-74
2022/06/01 00:10:34;;;;;;;;;1.00;1.00;;;;;;;;4986648;28;11114;-75
2022/06/01 00:13:01;;;;;;;;;1.00;1.00;;;;;;;;4988684;28;11171;-75
2022/06/01 00:15:30;;;;;;;;;1.00;1.00;;;;;;;;4970828;28;11108;-74
2022/06/01 00:18:00;;;;;;;;;1.00;1.00;;;;;;;;4987366;28;11200;-75
2022/06/01 00:20:28;;;;;;;;;1.00;1.00;;;;;;;;4984970;28;11480;-75
2022/06/01 00:22:56;;;;;;;;;1.00;1.00;;;;;;;;4987259;28;11207;-74
2022/06/01 00:25:24;;;;;;;;;0.50;0.50;;;;;;;;4956373;28;11146;-72
2022/06/01 00:27:53;;;;;;;;;0.50;0.50;;;;;;;;4974035;28;11437;-74
2022/06/01 00:30:22;;;;;;;;;1.00;1.00;;;;;;;;4966537;28;11244;-74
2022/06/01 00:32:49;;;;;;;;;1.25;1.00;;;;;;;;4965349;28;11249;-74
2022/06/01 00:35:19;;;;;;;;;0.00;0.00;;;;;;;;4968055;28;11396;-74
2022/06/01 00:37:47;;;;;;;;;2.25;1.00;;;;;;;;4963156;28;11524;-75
2022/06/01 00:40:16;;;;;;;;;1.75;1.75;;;;;;;;4950140;28;12450;-74
2022/06/01 00:42:45;;;;;;;;;1.00;1.00;;;;;;;;4970820;28;11491;-74
2022/06/01 00:45:18;;;;;;;;;3.00;1.75;;;;;;;;4962192;28;11284;-73
2022/06/01 00:47:45;;;;;;;;;2.00;1.00;;;;;;;;4960395;28;12737;-73
2022/06/01 00:50:15;;;;;;;;;3.00;1.00;;;;;;;;4970588;28;11495;-74
2022/06/01 00:52:47;;;;;;;;;1.25;1.25;;;;;;;;4973054;28;11450;-73
2022/06/01 00:55:17;;;;;;;;;1.00;1.00;;;;;;;;4945574;28;11420;-79
2022/06/01 00:57:44;;;;;;;;;1.00;1.00;;;;;;;;4969573;28;11246;-79
2022/06/01 01:00:17;;;;;;;;;0.00;0.00;;;;;;;;4972155;28;11274;-76
2022/06/01 01:02:44;;;;;;;;;1.00;1.00;;;;;;;;4968126;28;11419;-74
2022/06/01 01:05:13;;;;;;;;;1.50;1.00;;;;;;;;4972402;28;11452;-76
2022/06/01 01:07:42;;;;;;;;;0.25;0.25;;;;;;;;4962314;28;11459;-76
2022/06/01 01:10:10;;;;;;;;;1.00;1.00;;;;;;;;4965592;28;11462;-73
2022/06/01 01:15:25;;;;;;;;;1.50;1.50;;;;;;;;4956025;28;11444;-76
2022/06/01 01:17:52;;;;;;;;;1.00;1.00;;;;;;;;4960044;28;11553;-75
2022/06/01 01:20:20;;;;;;;;;1.00;1.00;;;;;;;;4966802;28;12278;-74
2022/06/01 01:22:54;;;;;;;;;1.00;1.00;;;;;;;;4962346;28;11620;-75
2022/06/01 01:25:28;;;;;;;;;1.25;1.00;;;;;;;;4981524;28;11445;-74
2022/06/01 01:27:58;;;;;;;;;1.75;1.75;;;;;;;;4985577;28;11456;-74
2022/06/01 01:30:35;;;;;;;;;1.50;1.50;;;;;;;;4978826;28;13087;-74
2022/06/01 01:33:03;;;;;;;;;2.00;2.00;;;;;;;;4986159;28;11465;-74
2022/06/01 01:35:31;;;;;;;;;1.00;1.00;;;;;;;;4985792;28;11487;-74
2022/06/01 01:37:59;;;;;;;;;3.00;1.50;;;;;;;;4979838;28;11968;-74
2022/06/01 01:40:28;;;;;;;;;1.50;1.50;;;;;;;;4985641;28;11431;-74
2022/06/01 01:42:57;;;;;;;;;1.50;1.50;;;;;;;;4984963;28;11512;-73
2022/06/01 01:45:26;;;;;;;;;1.50;1.50;;;;;;;;4989380;28;11455;-73
2022/06/01 01:47:54;;;;;;;;;1.75;1.75;;;;;;;;4985680;28;11430;-74
2022/06/01 01:50:22;;;;;;;;;2.00;2.00;;;;;;;;4982427;28;11477;-74
2022/06/01 01:52:50;;;;;;;;;1.75;1.75;;;;;;;;4990555;28;11453;-75
2022/06/01 01:55:25;;;;;;;;;1.00;1.00;;;;;;;;4982776;28;11494;-73
2022/06/01 01:57:57;;;;;;;;;2.00;2.00;;;;;;;;4987333;28;11473;-74
2022/06/01 02:00:28;;;;;;;;;2.75;2.00;;;;;;;;4988103;28;11429;-74
2022/06/01 02:03:01;;;;;;;;;1.00;1.00;;;;;;;;4981325;28;11506;-74
2022/06/01 02:08:25;;;;;;;;;1.50;1.50;;;;;;;;4983219;28;11480;-73
2022/06/01 02:13:42;;;;;;;;;2.25;2.00;;;;;;;;4980463;28;11518;-74
2022/06/01 02:16:10;;;;;;;;;2.00;2.00;;;;;;;;4981423;28;12279;-75
2022/06/01 02:18:40;;;;;;;;;0.75;0.00;;;;;;;;4988201;28;11496;-75
2022/06/01 02:21:10;;;;;;;;;1.00;1.00;;;;;;;;4982048;28;11534;-75
2022/06/01 02:23:39;;;;;;;;;2.25;2.25;;;;;;;;4980302;28;11661;-75
2022/06/01 02:26:07;;;;;;;;;4.00;2.00;;;;;;;;4984134;28;13574;-74
2022/06/01 02:28:35;;;;;;;;;2.00;2.00;;;;;;;;4981002;28;11555;-74
2022/06/01 02:31:04;;;;;;;;;2.75;2.00;;;;;;;;4984420;28;12357;-75
2022/06/01 02:33:34;;;;;;;;;3.75;3.00;;;;;;;;4983634;28;11488;-74
2022/06/01 02:36:04;;;;;;;;;1.75;1.75;;;;;;;;4982814;28;11490;-73
2022/06/01 02:38:36;;;;;;;;;1.75;1.75;;;;;;;;4980140;28;11481;-75
2022/06/01 02:41:04;;;;;;;;;1.00;1.00;;;;;;;;4991341;28;11593;-75
2022/06/01 02:43:31;;;;;;;;;2.75;2.75;;;;;;;;4984736;28;11489;-75
2022/06/01 02:45:59;;;;;;;;;2.00;2.00;;;;;;;;4989649;28;11561;-74
2022/06/01 02:48:28;;;;;;;;;2.75;2.75;;;;;;;;4978967;28;11458;-74
2022/06/01 02:50:55;;;;;;;;;1.50;1.50;;;;;;;;4978222;28;11536;-75
2022/06/01 02:53:22;;;;;;;;;2.50;2.00;;;;;;;;4977249;28;11543;-74
2022/06/01 02:55:49;;;;;;;;;1.00;1.00;;;;;;;;4966679;28;11543;-73
2022/06/01 02:58:17;;;;;;;;;1.00;1.00;;;;;;;;4982117;28;11631;-74
2022/06/01 03:00:44;;;;;;;;;3.50;3.50;;;;;;;;4988426;28;11442;-74
2022/06/01 03:03:11;;;;;;;;;1.75;1.75;;;;;;;;4984565;28;11552;-75
2022/06/01 03:05:41;;;;;;;;;1.00;1.00;;;;;;;;4982412;28;11575;-74
2022/06/01 03:08:10;;;;;;;;;2.00;2.00;;;;;;;;4969395;28;11646;-75
2022/06/01 03:10:37;;;;;;;;;2.50;2.00;;;;;;;;4993183;28;11640;-74
2022/06/01 03:13:05;;;;;;;;;2.00;2.00;;;;;;;;4984611;28;11578;-74
2022/06/01 03:15:32;;;;;;;;;4.75;2.00;;;;;;;;4985530;28;11555;-74
2022/06/01 03:17:59;;;;;;;;;2.00;2.00;;;;;;;;4989855;28;11562;-74
2022/06/01 03:20:28;;;;;;;;;2.00;2.00;;;;;;;;4986830;28;12329;-75
2022/06/01 03:22:57;;;;;;;;;2.00;2.00;;;;;;;;4989188;28;11520;-74
2022/06/01 03:25:25;;;;;;;;;2.00;2.00;;;;;;;;4987934;28;12336;-76
2022/06/01 03:27:53;;;;;;;;;1.00;1.00;;;;;;;;4983600;28;11626;-74
2022/06/01 03:30:21;;;;;;;;;2.50;2.50;;;;;;;;4990750;28;11569;-75
2022/06/01 03:32:49;;;;;;;;;2.50;2.50;;;;;;;;4998414;28;11535;-74
2022/06/01 03:35:18;;;;;;;;;2.00;2.00;;;;;;;;4988935;28;11563;-74
2022/06/01 03:37:46;;;;;;;;;3.00;2.00;;;;;;;;4983737;28;11523;-77
2022/06/01 03:40:18;;;;;;;;;2.00;2.00;;;;;;;;4989063;28;11669;-74
2022/06/01 03:42:45;;;;;;;;;2.75;2.75;;;;;;;;4984664;28;11548;-75
2022/06/01 03:48:00;;;;;;;;;1.25;1.25;;;;;;;;4987125;28;11506;-74
2022/06/01 03:50:28;;;;;;;;;3.00;3.00;;;;;;;;4982036;28;11520;-75
2022/06/01 03:52:57;;;;;;;;;6.25;2.75;;;;;;;;4991001;28;11533;-74
2022/06/01 03:55:26;;;;;;;;;4.50;3.00;;;;;;;;4985756;28;11579;-74
2022/06/01 03:57:53;;;;;;;;;1.75;1.75;;;;;;;;4989183;28;11537;-74
2022/06/01 04:00:22;;;;;;;;;2.00;2.00;;;;;;;;4988996;28;11679;-73
2022/06/01 04:02:50;;;;;;;;;5.50;2.75;;;;;;;;4985830;28;12311;-75
2022/06/01 04:05:18;;;;;;;;;2.50;2.50;;;;;;;;4986793;28;11556;-73
2022/06/01 04:07:46;;;;;;;;;2.00;2.00;;;;;;;;4987655;28;11496;-74
2022/06/01 04:10:13;;;;;;;;;3.00;3.00;;;;;;;;4987058;28;11552;-73
2022/06/01 04:12:42;;;;;;;;;3.00;3.00;;;;;;;;4990168;28;12314;-75
2022/06/01 04:15:10;;;;;;;;;3.00;3.00;;;;;;;;4988331;28;11531;-77
2022/06/01 04:17:38;;;;;;;;;4.25;4.25;;;;;;;;4984873;28;11551;-77
2022/06/01 04:20:08;;;;;;;;;6.75;5.00;;;;;;;;4987544;28;11545;-74
2022/06/01 04:22:36;;;;;;;;;6.00;3.25;;;;;;;;4987443;28;11562;-75
2022/06/01 04:25:04;;;;;;;;;4.25;4.25;;;;;;;;4973790;28;11514;-73
2022/06/01 04:27:31;;;;;;;;;5.50;4.50;;;;;;;;4963070;28;11545;-75
2022/06/01 04:30:00;;;;;;;;;4.00;4.00;;;;;;;;4972081;28;11492;-73
2022/06/01 04:32:31;;;;;;;;;3.25;3.25;;;;;;;;4961818;28;11572;-74
2022/06/01 04:34:59;;;;;;;;;4.50;4.50;;;;;;;;4965237;28;11640;-74
2022/06/01 04:37:26;;;;;;;;;6.00;3.25;;;;;;;;4961421;28;11538;-74
2022/06/01 04:39:54;;;;;;;;;6.25;4.00;;;;;;;;4966618;28;11582;-74
2022/06/01 04:42:21;;;;;;;;;4.50;4.00;;;;;;;;4965479;28;11615;-75
2022/06/01 04:44:49;;;;;;;;;6.75;6.75;;;;;;;;4928749;28;11580;-76
2022/06/01 04:47:19;;;;;;;;;6.50;6.50;;;;;;;;4961913;28;12364;-78
2022/06/01 04:49:46;;;;;;;;;8.75;7.50;;;;;;;;4964810;28;11515;-76
2022/06/01 04:52:14;;;;;;;;;7.00;7.00;;;;;;;;4963830;28;11495;-75
2022/06/01 04:54:41;;;;;;;;;7.00;7.00;;;;;;;;4962695;28;11563;-74
2022/06/01 04:57:09;;;;;;;;;6.75;6.00;;;;;;;;4965864;28;11462;-75
2022/06/01 04:59:37;;;;;;;;;12.50;11.50;;;;;;;;4962074;28;11464;-74
2022/06/01 05:02:05;;;;;;;;;9.00;9.00;;;;;;;;4961644;28;11510;-74
2022/06/01 05:04:36;;;;;;;;;12.25;10.25;;;;;;;;4965928;28;11522;-75
2022/06/01 05:07:03;;;;;;;;;9.50;9.50;;;;;;;;4964716;28;11559;-77
2022/06/01 05:09:31;;;;;;;;;8.75;8.00;;;;;;;;4965398;28;11487;-76
2022/06/01 05:11:58;;;;;;;;;8.00;8.00;;;;;;;;4946633;28;11580;-79
2022/06/01 05:14:26;;;;;;;;;7.00;7.00;;;;;;;;4964683;28;11494;-80
2022/06/01 05:16:56;;;;;;;;;8.75;8.75;;;;;;;;4967935;28;11417;-76
2022/06/01 05:19:24;;;;;;;;;12.00;11.50;;;;;;;;4965120;28;11533;-81
2022/06/01 05:21:53;;;;;;;;;12.00;12.00;;;;;;;;4964430;28;11444;-77
2022/06/01 05:24:20;;;;;;;;;9.25;9.25;;;;;;;;4972347;28;12389;-77
2022/06/01 05:26:47;;;;;;;;;8.25;7.00;;;;;;;;4971107;28;11456;-75
2022/06/01 05:29:14;;;;;;;;;12.00;9.50;;;;;;;;4989746;28;11442;-74
2022/06/01 05:31:42;;;;;;;;;7.00;7.00;;;;;;;;4993957;28;11385;-76
2022/06/01 05:34:09;;;;;;;;;8.00;8.00;;;;;;;;4967162;28;11434;-74
2022/06/01 05:36:36;;;;;;;;;10.25;10.25;;;;;;;;4983142;28;11437;-76
2022/06/01 05:39:06;;;;;;;;;12.75;8.50;;;;;;;;4984076;28;11441;-78
2022/06/01 05:41:33;;;;;;;;;4.00;4.00;;;;;;;;4982869;28;11447;-78
2022/06/01 05:44:00;;;;;;;;;7.00;6.00;;;;;;;;4982547;28;11361;-73
2022/06/01 05:46:28;;;;;;;;;6.50;6.00;;;;;;;;4983469;28;11007;-73
2022/06/01 05:48:56;;;;;;;;;8.75;8.75;;;;;;;;4988453;28;11816;-73
2022/06/01 05:51:23;;;;;;;;;6.75;6.75;;;;;;;;4971133;28;11139;-73
2022/06/01 05:53:50;;;;;;;;;3.75;3.75;;;;;;;;4978860;28;12046;-74
2022/06/01 05:56:19;;;;;;;;;7.00;6.00;;;;;;;;4980097;28;10843;-73
2022/06/01 05:58:48;;;;;;;;;2.00;2.00;;;;;;;;4993817;28;10800;-71
2022/06/01 06:01:16;;;;;;;;;4.00;2.50;;;;;;;;4983663;28;10478;-72
2022/06/01 06:03:45;;;;;;;;;3.50;3.50;;;;;;;;4963979;28;10597;-71
2022/06/01 06:06:20;;;;;;;;;7.00;4.00;;;;;;;;4986629;28;10474;-72
2022/06/01 06:08:52;;;;;;;;;6.75;4.00;;;;;;;;4979346;28;10580;-71
2022/06/01 06:11:22;;;;;;;;;3.00;3.00;;;;;;;;4986872;28;10561;-73
2022/06/01 06:13:49;;;;;;;;;4.00;4.00;;;;;;;;4981485;28;10326;-71
2022/06/01 06:16:18;;;;;;;;;5.50;3.50;;;;;;;;4987916;28;10486;-72
2022/06/01 06:18:46;;;;;;;;;3.00;3.00;;;;;;;;4981938;28;10363;-72
2022/06/01 06:21:13;;;;;;;;;6.00;6.00;;;;;;;;4981748;28;10427;-72
2022/06/01 06:23:41;;;;;;;;;6.00;4.00;;;;;;;;4987524;28;10387;-73
2022/06/01 06:26:08;;;;;;;;;7.00;4.75;;;;;;;;4965813;28;10323;-73
2022/06/01 06:28:38;;;;;;;;;6.75;5.00;;;;;;;;4974172;28;10332;-73
2022/06/01 06:31:06;;;;;;;;;5.00;5.00;;;;;;;;4987008;28;10263;-73
2022/06/01 06:33:33;;;;;;;;;3.75;3.75;;;;;;;;4987050;28;10330;-72
2022/06/01 06:36:02;;;;;;;;;5.00;5.00;;;;;;;;4991804;28;10388;-73
2022/06/01 06:38:30;;;;;;;;;7.00;4.00;;;;;;;;4983869;28;10168;-73
2022/06/01 06:40:59;;;;;;;;;5.75;4.75;;;;;;;;4989078;28;10831;-72
2022/06/01 06:43:28;;;;;;;;;5.25;5.25;;;;;;;;4981471;28;10104;-73
2022/06/01 06:46:01;;;;;;;;;2.00;2.00;;;;;;;;4988111;28;10112;-73
2022/06/01 06:48:28;;;;;;;;;4.00;3.00;;;;;;;;4989704;28;9863;-74
2022/06/01 06:50:56;;;;;;;;;5.00;5.00;;;;;;;;4992854;28;9653;-74
2022/06/01 06:53:23;;;;;;;;;2.00;2.00;;;;;;;;4990144;28;10077;-76
2022/06/01 06:55:51;;;;;;;;;4.25;4.25;;;;;;;;4985399;28;9662;-74
2022/06/01 06:58:19;;;;;;;;;5.00;5.00;;;;;;;;4991179;28;10389;-73
2022/06/01 07:00:46;;;;;;;;;4.00;4.00;;;;;;;;4984453;28;9694;-73
2022/06/01 07:03:15;;;;;;;;;4.00;4.00;;;;;;;;4982498;28;9590;-73
2022/06/01 07:08:27;;;;;;;;;4.00;3.25;;;;;;;;4981197;28;10172;-74
2022/06/01 07:10:56;;;;;;;;;5.00;3.00;;;;;;;;4981741;28;9468;-74
2022/06/01 07:13:24;;;;;;;;;2.67;2.67;;;;;;;;4967824;28;9347;-74
2022/06/01 07:16:01;;;;;;;;;2.00;2.00;;;;;;;;4983539;28;9108;-74
2022/06/01 07:18:31;;;;;;;;;3.33;3.33;;;;;;;;4978018;28;9167;-74
2022/06/01 07:20:58;;;;;;;;;2.00;2.00;;;;;;;;4973426;28;9310;-74
2022/06/01 07:23:26;;;;;;;;;4.33;2.00;;;;;;;;4979953;28;9089;-74
2022/06/01 07:25:53;;;;;;;;;4.00;3.00;;;;;;;;4989002;28;9076;-74
2022/06/01 07:28:22;;;;;;;;;2.67;2.33;;;;;;;;4980530;28;9094;-73
2022/06/01 07:30:50;;;;;;;;;3.00;3.00;;;;;;;;4975625;28;8991;-74
2022/06/01 07:33:18;;;;;;;;;3.00;3.00;;;;;;;;4979676;28;8901;-74
2022/06/01 07:35:47;;;;;;;;;3.25;2.50;;;;;;;;4977463;28;8913;-74
2022/06/01 07:43:43;;;;;;;;;3.00;3.00;;;;;;;;4983196;28;8850;-74
2022/06/01 07:46:11;;;;;;;;;2.50;2.50;;;;;;;;4979026;28;8938;-74
2022/06/01 07:48:39;;;;;;;;;2.25;2.25;;;;;;;;4983142;28;8887;-74
2022/06/01 07:51:08;;;;;;;;;2.50;2.00;;;;;;;;4982378;28;8888;-74
2022/06/01 07:53:35;;;;;;;;;1.75;1.75;;;;;;;;4981180;28;8870;-74
2022/06/01 07:56:02;;;;;;;;;3.00;3.00;;;;;;;;4980768;28;8888;-74
2022/06/01 07:58:31;;;;;;;;;4.25;3.00;;;;;;;;4980517;28;8883;-74
2022/06/01 08:00:58;;;;;;;;;2.75;2.25;;;;;;;;4972220;28;9537;-74
2022/06/01 08:03:26;;;;;;;;;2.00;2.00;;;;;;;;4976232;28;8893;-74
2022/06/01 08:05:53;;;;;;;;;3.50;2.75;;;;;;;;4964701;28;8845;-74
2022/06/01 08:08:22;;;;;;;;;1.50;1.50;;;;;;;;4964531;28;8867;-74
2022/06/01 08:10:50;;;;;;;;;2.00;2.00;;;;;;;;4988797;28;8871;-73
2022/06/01 08:13:16;;;;;;;;;4.00;2.00;;;;;;;;4996088;28;8866;-73
2022/06/01 08:15:45;;;;;;;;;2.50;2.50;;;;;;;;4983566;28;8861;-73
2022/06/01 08:18:14;;;;;;;;;2.00;2.00;;;;;;;;4978654;28;8979;-75
2022/06/01 08:20:42;;;;;;;;;2.00;2.00;;;;;;;;4987198;28;8879;-73
2022/06/01 08:23:11;;;;;;;;;2.00;2.00;;;;;;;;4980046;28;9663;-73
2022/06/01 08:25:40;;;;;;;;;2.50;2.00;;;;;;;;4963831;28;8873;-74
2022/06/01 08:28:09;;;;;;;;;1.25;1.25;;;;;;;;4960549;28;9023;-72
2022/06/01 08:30:38;;;;;;;;;2.00;2.00;;;;;;;;4947426;28;8837;-73
2022/06/01 08:33:07;;;;;;;;;2.00;2.00;;;;;;;;4958603;28;8999;-74
2022/06/01 08:35:38;;;;;;;;;1.25;1.25;;;;;;;;4953577;28;8918;-75
2022/06/01 08:38:06;;;;;;;;;1.50;1.50;;;;;;;;4959460;28;8926;-75
2022/06/01 08:40:38;;;;;;;;;2.25;2.25;;;;;;;;4962255;28;8883;-73
2022/06/01 08:43:11;;;;;;;;;1.50;1.50;;;;;;;;4950445;28;8925;-74
2022/06/01 08:45:39;;;;;;;;;1.50;1.50;;;;;;;;4959440;28;8849;-73
2022/06/01 08:48:07;;;;;;;;;2.75;2.75;;;;;;;;4960103;28;8863;-74
2022/06/01 08:50:38;;;;;;;;;2.00;2.00;;;;;;;;4972306;28;8892;-74
2022/06/01 08:53:08;;;;;;;;;1.00;1.00;;;;;;;;4961248;28;8910;-74
2022/06/01 08:55:46;;;;;;;;;0.00;0.00;;;;;;;;4968113;28;8894;-73
2022/06/01 08:58:18;;;;;;;;;1.50;1.50;;;;;;;;4963446;28;8889;-74
2022/06/01 09:00:52;;;;;;;;;1.25;1.25;;;;;;;;4965103;28;8832;-73
2022/06/01 09:03:27;;;;;;;;;0.75;0.75;;;;;;;;4959601;28;8851;-74
2022/06/01 09:05:59;;;;;;;;;1.50;1.50;;;;;;;;4967495;28;8901;-75
2022/06/01 09:08:32;;;;;;;;;2.50;1.25;;;;;;;;4958660;28;8906;-73
2022/06/01 09:11:07;;;;;;;;;2.00;2.00;;;;;;;;4957131;28;8954;-74
2022/06/01 09:13:43;;;;;;;;;1.00;1.00;;;;;;;;4956557;28;8913;-71
2022/06/01 09:16:14;;;;;;;;;1.75;1.75;;;;;;;;4959117;28;8851;-74
2022/06/01 09:18:44;;;;;;;;;1.20;1.20;;;;;;;;4960211;28;9029;-75
2022/06/01 09:24:12;;;;;;;;;1.00;1.00;;;;;;;;4960127;28;8846;-73
2022/06/01 09:26:55;;;;;;;;;1.00;1.00;;;;;;;;4975280;28;8854;-73
2022/06/01 09:29:27;;;;;;;;;1.00;1.00;;;;;;;;4980686;28;8858;-74
2022/06/01 09:32:01;;;;;;;;;2.00;2.00;;;;;;;;4990883;28;9557;-73
2022/06/01 09:34:38;;;;;;;;;1.00;1.00;;;;;;;;4983491;28;8874;-74
2022/06/01 09:37:12;;;;;;;;;2.60;1.00;;;;;;;;4971528;28;8869;-72
2022/06/01 09:39:50;;;;;;;;;2.00;2.00;;;;;;;;4981317;28;8930;-73
2022/06/01 09:42:25;;;;;;;;;1.40;1.00;;;;;;;;4986757;28;8857;-73
2022/06/01 09:44:57;;;;;;;;;1.00;1.00;;;;;;;;4984358;28;8909;-71
2022/06/01 09:47:39;;;;;;;;;1.00;1.00;;;;;;;;4979815;28;8878;-73
2022/06/01 09:50:21;;;;;;;;;4.60;2.00;;;;;;;;4966687;28;8866;-71
2022/06/01 09:52:49;;;;;;;;;1.40;1.40;;;;;;;;4980693;28;9045;-73
2022/06/01 09:55:23;;;;;;;;;1.40;1.40;;;;;;;;4966029;28;8874;-72
2022/06/01 09:58:06;;;;;;;;;1.20;1.20;;;;;;;;4975992;28;8996;-72
2022/06/01 10:06:22;;;;;;;;;2.60;1.00;;;;;;;;4971203;28;8843;-74
2022/06/01 10:09:02;;;;;;;;;0.00;0.00;;;;;;;;4975882;28;8881;-73
2022/06/01 10:11:37;;;;;;;;;1.80;1.80;;;;;;;;4975725;28;8890;-73
2022/06/01 10:14:17;;;;;;;;;1.80;1.80;;;;;;;;4981043;28;8880;-73
2022/06/01 10:16:58;;;;;;;;;1.00;1.00;;;;;;;;4975863;28;8873;-72
2022/06/01 10:19:29;;;;;;;;;0.80;0.80;;;;;;;;4982175;28;8842;-73
2022/06/01 10:22:00;;;;;;;;;1.00;1.00;;;;;;;;4968540;28;8863;-74
2022/06/01 10:24:31;;;;;;;;;1.00;1.00;;;;;;;;4984565;28;8839;-73
2022/06/01 10:27:00;;;;;;;;;1.00;1.00;;;;;;;;4977521;28;8863;-73
2022/06/01 10:29:31;;;;;;;;;2.20;1.00;;;;;;;;4974995;28;9624;-73
2022/06/01 10:32:04;;;;;;;;;4.80;3.00;;;;;;;;4980899;28;8821;-73
2022/06/01 10:34:37;;;;;;;;;1.00;1.00;;;;;;;;4976171;28;8890;-74
2022/06/01 10:37:09;;;;;;;;;1.60;1.60;;;;;;;;4966507;28;8982;-73
2022/06/01 10:39:40;;;;;;;;;3.00;2.00;;;;;;;;4960564;28;8925;-73
2022/06/01 10:42:15;;;;;;;;;1.00;1.00;;;;;;;;4959583;28;8977;-73
2022/06/01 10:44:46;;;;;;;;;1.80;1.00;;;;;;;;4977263;28;8989;-74
2022/06/01 10:47:22;;;;;;;;;1.00;1.00;;;;;;;;4977379;28;8869;-74
2022/06/01 10:49:54;;;;;;;;;2.20;2.20;;;;;;;;4974163;28;8899;-73
2022/06/01 10:52:29;;;;;;;;;1.40;1.40;;;;;;;;4985073;28;8994;-72
2022/06/01 10:55:16;;;;;;;;;1.80;1.80;;;;;;;;4986181;28;8887;-73
2022/06/01 10:57:45;;;;;;;;;1.40;1.40;;;;;;;;4983586;28;8858;-75
2022/06/01 11:00:15;;;;;;;;;1.60;1.60;;;;;;;;4987616;28;8875;-74
2022/06/01 11:03:07;;;;;;;;;2.60;2.60;;;;;;;;4980688;28;8854;-75
2022/06/01 11:05:44;;;;;;;;;2.00;2.00;;;;;;;;4978726;28;8937;-75
2022/06/01 11:08:25;;;;;;;;;2.00;2.00;;;;;;;;4987995;28;9010;-74
2022/06/01 11:11:02;;;;;;;;;1.40;1.40;;;;;;;;4990788;28;8922;-74
2022/06/01 11:13:46;;;;;;;;;2.00;2.00;;;;;;;;4991008;28;8860;-74
2022/06/01 11:16:25;;;;;;;;;1.60;1.60;;;;;;;;4967318;28;8864;-74
2022/06/01 11:19:05;;;;;;;;;2.40;2.40;;;;;;;;4978220;28;9252;-73
2022/06/01 11:21:39;;;;;;;;;2.20;1.80;;;;;;;;4978580;28;8924;-73
2022/06/01 11:24:27;;;;;;;;;1.00;1.00;;;;;;;;4980734;28;8874;-73
2022/06/01 11:27:07;;;;;;;;;1.00;1.00;;;;;;;;4987040;28;8871;-74
2022/06/01 11:29:46;;;;;;;;;0.80;0.80;;;;;;;;4985855;28;8857;-75
2022/06/01 11:32:18;;;;;;;;;1.00;1.00;;;;;;;;4981978;28;9644;-73
2022/06/01 11:34:52;;;;;;;;;1.00;1.00;;;;;;;;4990171;28;8873;-73
2022/06/01 11:37:23;;;;;;;;;1.20;1.20;;;;;;;;4981548;28;8964;-76
2022/06/01 11:39:55;;;;;;;;;3.80;2.00;;;;;;;;4983077;28;8847;-73
2022/06/01 11:42:29;;;;;;;;;1.40;1.40;;;;;;;;4983492;28;8919;-75
2022/06/01 11:45:01;;;;;;;;;1.60;1.60;;;;;;;;4987540;28;8856;-74
2022/06/01 11:47:34;;;;;;;;;0.60;0.60;;;;;;;;4985616;28;9689;-73
2022/06/01 11:50:15;;;;;;;;;0.60;0.60;;;;;;;;4983177;28;8882;-71
2022/06/01 11:52:46;;;;;;;;;0.80;0.40;;;;;;;;4989964;28;8892;-75
2022/06/01 11:55:40;;;;;;;;;0.80;0.80;;;;;;;;4996091;28;8908;-72
2022/06/01 11:58:11;;;;;;;;;0.60;0.60;;;;;;;;4977319;28;8862;-74
2022/06/01 12:00:44;;;;;;;;;0.60;0.60;;;;;;;;4975007;28;8896;-77
2022/06/01 12:03:33;;;;;;;;;2.00;2.00;;;;;;;;4991842;28;8906;-74
2022/06/01 12:06:05;;;;;;;;;3.00;2.00;;;;;;;;4988723;28;9744;-74
2022/06/01 12:08:37;;;;;;;;;2.00;2.00;;;;;;;;4993078;28;8985;-73
2022/06/01 12:11:06;;;;;;;;;1.00;1.00;;;;;;;;4984957;28;8874;-72
2022/06/01 12:13:52;;;;;;;;;1.40;1.40;;;;;;;;4986118;28;8871;-72
2022/06/01 12:16:22;;;;;;;;;1.80;1.80;;;;;;;;4987635;28;8912;-74
2022/06/01 12:19:02;;;;;;;;;1.60;1.60;;;;;;;;4997151;28;8875;-73
2022/06/01 12:21:36;;;;;;;;;3.20;1.60;;;;;;;;4984041;28;8952;-72
2022/06/01 12:30:10;;;;;;;;;1.60;1.60;;;;;;;;4981795;28;9678;-73
2022/06/01 12:33:08;;;;;;;;;1.80;1.80;;;;;;;;4982125;28;8890;-71
2022/06/01 12:35:49;;;;;;;;;0.80;0.80;;;;;;;;4977590;28;8875;-73
2022/06/01 12:38:28;;;;;;;;;3.00;1.60;;;;;;;;4975557;28;8858;-74
2022/06/01 12:41:00;;;;;;;;;1.80;1.80;;;;;;;;4982027;28;8893;-74
2022/06/01 12:43:28;;;;;;;;;1.60;1.60;;;;;;;;4982066;28;8880;-74
2022/06/01 12:45:55;;;;;;;;;1.40;1.40;;;;;;;;4977525;28;8879;-74
2022/06/01 12:48:23;;;;;;;;;0.80;0.80;;;;;;;;4960830;28;8876;-75
2022/06/01 12:50:54;;;;;;;;;1.80;1.20;;;;;;;;4975526;28;8892;-70
2022/06/01 12:53:26;;;;;;;;;1.60;1.20;;;;;;;;4978848;28;8916;-75
2022/06/01 12:56:14;;;;;;;;;0.60;0.60;;;;;;;;4974591;28;8873;-76
2022/06/01 12:58:41;;;;;;;;;1.00;1.00;;;;;;;;4975706;28;8862;-74
2022/06/01 13:01:09;;;;;;;;;0.80;0.80;;;;;;;;4976076;28;9018;-74
2022/06/01 13:03:43;;;;;;;;;1.00;1.00;;;;;;;;4975530;28;8878;-75
2022/06/01 13:06:14;;;;;;;;;1.00;1.00;;;;;;;;4977648;28;8854;-78
2022/06/01 13:08:42;;;;;;;;;0.80;0.80;;;;;;;;4974967;28;8917;-76
2022/06/01 13:11:17;;;;;;;;;0.60;0.60;;;;;;;;4977559;28;9629;-75
2022/06/01 13:13:45;;;;;;;;;1.20;0.20;;;;;;;;4964618;28;8882;-75
2022/06/01 13:16:13;;;;;;;;;0.00;0.00;;;;;;;;4979023;28;8902;-74
2022/06/01 13:18:43;;;;;;;;;2.60;0.80;;;;;;;;4981992;28;9791;-74
2022/06/01 13:21:16;;;;;;;;;1.80;1.80;;;;;;;;4979443;28;8883;-74
2022/06/01 13:23:53;;;;;;;;;2.00;0.20;;;;;;;;4978255;28;8993;-73
2022/06/01 13:26:28;;;;;;;;;1.00;1.00;;;;;;;;4986664;28;8912;-78
2022/06/01 13:29:13;;;;;;;;;0.60;0.60;;;;;;;;4979413;28;8844;-76
2022/06/01 13:31:43;;;;;;;;;0.80;0.80;;;;;;;;4974521;28;8831;-74
2022/06/01 13:34:19;;;;;;;;;0.80;0.80;;;;;;;;4979671;28;8921;-74
2022/06/01 13:36:49;;;;;;;;;1.00;1.00;;;;;;;;4974991;28;8879;-73
2022/06/01 13:39:29;;;;;;;;;0.80;0.80;;;;;;;;4980106;28;9009;-73
2022/06/01 13:42:00;;;;;;;;;0.80;0.80;;;;;;;;4979333;28;8866;-74
2022/06/01 13:44:47;;;;;;;;;0.80;0.80;;;;;;;;4977420;28;8894;-75
2022/06/01 13:47:18;;;;;;;;;0.00;0.00;;;;;;;;4974344;28;8914;-74
2022/06/01 13:49:48;;;;;;;;;0.80;0.80;;;;;;;;4974784;28;8881;-75
2022/06/01 13:52:16;;;;;;;;;0.00;0.00;;;;;;;;4977294;28;9384;-76
2022/06/01 13:54:49;;;;;;;;;0.80;0.80;;;;;;;;4978475;28;8869;-73
2022/06/01 13:57:20;;;;;;;;;2.40;0.80;;;;;;;;4974829;28;8920;-74
2022/06/01 13:59:55;;;;;;;;;0.00;0.00;;;;;;;;4976591;28;9014;-75
2022/06/01 14:02:31;;;;;;;;;0.20;0.20;;;;;;;;4955752;28;8969;-75
2022/06/01 14:05:04;;;;;;;;;0.00;0.00;;;;;;;;4978329;28;8885;-75
2022/06/01 14:07:42;;;;;;;;;0.40;0.40;;;;;;;;4980543;28;8875;-75
2022/06/01 14:10:13;;;;;;;;;0.00;0.00;;;;;;;;4961751;28;8871;-75
2022/06/01 14:12:42;;;;;;;;;0.00;0.00;;;;;;;;4979086;28;8891;-76
2022/06/01 14:15:11;;;;;;;;;0.00;0.00;;;;;;;;4979456;28;8878;-75
2022/06/01 14:17:43;;;;;;;;;1.20;1.00;;;;;;;;4979171;28;8892;-74
2022/06/01 14:20:12;;;;;;;;;0.20;0.20;;;;;;;;4978845;28;8870;-75
2022/06/01 14:22:39;;;;;;;;;0.00;0.00;;;;;;;;4977207;28;9026;-73
2022/06/01 14:30:38;;;;;;;;;0.80;0.80;;;;;;;;4965392;28;8812;-72
2022/06/01 14:33:07;;;;;;;;;0.00;0.00;;;;;;;;4957673;28;8994;-75
2022/06/01 14:35:35;;;;;;;;;0.00;0.00;;;;;;;;4965231;28;8864;-75
2022/06/01 14:38:02;;;;;;;;;0.00;0.00;;;;;;;;4960738;28;8936;-74
2022/06/01 14:40:29;;;;;;;;;0.60;0.60;;;;;;;;4967006;28;8860;-74
2022/06/01 14:42:58;;;;;;;;;0.80;0.80;;;;;;;;4966144;28;8869;-73
2022/06/01 14:45:26;;;;;;;;;0.20;0.20;;;;;;;;4958540;28;8878;-74
2022/06/01 14:47:53;;;;;;;;;0.00;0.00;;;;;;;;4960706;28;8999;-74
2022/06/01 14:50:21;;;;;;;;;0.00;0.00;;;;;;;;4961756;28;8926;-74
2022/06/01 14:52:49;;;;;;;;;0.00;0.00;;;;;;;;4962960;28;8882;-74
2022/06/01 14:55:18;;;;;;;;;0.40;0.40;;;;;;;;4939904;28;8859;-74
2022/06/01 14:57:46;;;;;;;;;0.00;0.00;;;;;;;;4960303;28;8887;-74
2022/06/01 15:00:16;;;;;;;;;0.00;0.00;;;;;;;;4966881;28;8877;-74
2022/06/01 15:02:47;;;;;;;;;0.00;0.00;;;;;;;;4965027;28;8980;-74
2022/06/01 15:05:15;;;;;;;;;0.00;0.00;;;;;;;;4974532;28;8938;-73
2022/06/01 15:07:42;;;;;;;;;0.00;0.00;;;;;;;;4965049;28;8955;-74
2022/06/01 15:10:10;;;;;;;;;0.00;0.00;;;;;;;;4969747;28;8933;-74
2022/06/01 15:12:38;;;;;;;;;0.00;0.00;;;;;;;;4965959;28;8921;-73
2022/06/01 15:15:07;;;;;;;;;0.00;0.00;;;;;;;;4963370;28;8871;-73
2022/06/01 15:17:35;;;;;;;;;0.00;0.00;;;;;;;;4965070;28;8879;-73
2022/06/01 15:20:03;;;;;;;;;0.20;0.00;;;;;;;;4970213;28;9621;-75
2022/06/01 15:22:31;;;;;;;;;0.00;0.00;;;;;;;;4965490;28;8921;-73
2022/06/01 15:24:59;;;;;;;;;0.80;0.80;;;;;;;;4972277;28;8892;-74
2022/06/01 15:27:27;;;;;;;;;0.00;0.00;;;;;;;;4982377;28;8979;-74
2022/06/01 15:40:58;;;;;;;;;0.40;0.40;;;;;;;;4973609;28;8842;-75
2022/06/01 15:43:25;;;;;;;;;0.80;0.80;;;;;;;;4980680;28;8891;-75
2022/06/01 15:45:53;;;;;;;;;2.00;2.00;;;;;;;;4984518;28;8888;-73
2022/06/01 15:48:23;;;;;;;;;1.00;1.00;;;;;;;;4983517;28;8877;-73
2022/06/01 15:50:53;;;;;;;;;2.40;2.40;;;;;;;;4979195;28;8873;-73
2022/06/01 15:53:21;;;;;;;;;1.20;1.20;;;;;;;;4985167;28;8896;-72
2022/06/01 15:55:49;;;;;;;;;1.80;1.80;;;;;;;;4986979;28;9700;-73
2022/06/01 15:58:16;;;;;;;;;3.00;3.00;;;;;;;;4983617;28;8849;-72
2022/06/01 16:00:46;;;;;;;;;3.40;3.40;;;;;;;;4964217;28;8823;-73